Conrad, Montana
Current Conditions -  °F | °C
As of 10:56 PM on Friday 24 Oct 2014 (Local Time) from KCTB Reporting Station
Broken Clouds Broken Clouds  
Wind Chill: 44°   Ceiling: 12000
Heat Index: 44°   Visibility: 10mi
Dew Point: 33°   Wind: 3mph
Humidity: 65%   Direction: 110°ESE
Pressure: 30.07"   Gusts: NA
Location:  48.17°N, 111.95°W
Report Text: KCTB 250456Z AUTO 11003KT 10SM BKN120 07/01 A3007 RMK AO2 SLP185 T00670006
Loading
Personal Weather Stations






























Interactive Weather Map
Tropical Storm Tracking
New forecast layout! Learn more

10-Day Weather Forecast

Advertisements
Track Severe Weather on mobile